sensor_id;sensor_type;location;lat;lon;timestamp;temperature;humidity
74224;SHT31;62585;49.706;18.216;2023-12-22T00:01:20;5.63;83.70
74224;SHT31;62585;49.706;18.216;2023-12-22T00:03:46;5.63;83.28
74224;SHT31;62585;49.706;18.216;2023-12-22T00:06:12;5.68;82.85
74224;SHT31;62585;49.706;18.216;2023-12-22T00:08:38;5.73;82.74
74224;SHT31;62585;49.706;18.216;2023-12-22T00:11:04;5.75;82.29
74224;SHT31;62585;49.706;18.216;2023-12-22T00:13:30;5.75;80.84
74224;SHT31;62585;49.706;18.216;2023-12-22T00:15:58;5.76;80.92
74224;SHT31;62585;49.706;18.216;2023-12-22T00:18:24;5.82;80.04
74224;SHT31;62585;49.706;18.216;2023-12-22T00:20:50;5.83;78.24
74224;SHT31;62585;49.706;18.216;2023-12-22T00:23:16;5.88;77.81
74224;SHT31;62585;49.706;18.216;2023-12-22T00:25:42;5.90;77.70
74224;SHT31;62585;49.706;18.216;2023-12-22T00:28:07;5.96;76.53
74224;SHT31;62585;49.706;18.216;2023-12-22T00:30:33;5.96;76.89
74224;SHT31;62585;49.706;18.216;2023-12-22T00:32:59;5.90;76.95
74224;SHT31;62585;49.706;18.216;2023-12-22T00:35:25;6.06;76.64
74224;SHT31;62585;49.706;18.216;2023-12-22T00:37:51;5.99;76.64
74224;SHT31;62585;49.706;18.216;2023-12-22T00:40:17;6.02;76.93
74224;SHT31;62585;49.706;18.216;2023-12-22T00:42:42;6.02;76.83
74224;SHT31;62585;49.706;18.216;2023-12-22T00:45:09;6.20;76.63
74224;SHT31;62585;49.706;18.216;2023-12-22T00:47:34;6.09;76.87
74224;SHT31;62585;49.706;18.216;2023-12-22T00:50:01;6.03;77.53
74224;SHT31;62585;49.706;18.216;2023-12-22T00:52:27;5.90;77.77
74224;SHT31;62585;49.706;18.216;2023-12-22T00:54:54;5.88;77.81
74224;SHT31;62585;49.706;18.216;2023-12-22T00:57:19;5.78;77.94
74224;SHT31;62585;49.706;18.216;2023-12-22T00:59:45;5.82;77.96
74224;SHT31;62585;49.706;18.216;2023-12-22T01:02:16;5.82;77.27
74224;SHT31;62585;49.706;18.216;2023-12-22T01:04:42;5.78;76.82
74224;SHT31;62585;49.706;18.216;2023-12-22T01:07:08;5.73;76.76
74224;SHT31;62585;49.706;18.216;2023-12-22T01:09:35;5.68;76.09
74224;SHT31;62585;49.706;18.216;2023-12-22T01:12:06;5.66;75.91
74224;SHT31;62585;49.706;18.216;2023-12-22T01:14:32;5.58;75.74
74224;SHT31;62585;49.706;18.216;2023-12-22T01:16:58;5.50;75.85
74224;SHT31;62585;49.706;18.216;2023-12-22T01:19:27;5.47;75.79
74224;SHT31;62585;49.706;18.216;2023-12-22T01:21:53;5.37;76.04
74224;SHT31;62585;49.706;18.216;2023-12-22T01:24:19;5.24;76.92
74224;SHT31;62585;49.706;18.216;2023-12-22T01:26:45;5.31;76.79
74224;SHT31;62585;49.706;18.216;2023-12-22T01:29:11;5.26;76.84
74224;SHT31;62585;49.706;18.216;2023-12-22T01:31:36;5.17;77.31
74224;SHT31;62585;49.706;18.216;2023-12-22T01:34:02;5.14;77.74
74224;SHT31;62585;49.706;18.216;2023-12-22T01:36:28;5.01;77.96
74224;SHT31;62585;49.706;18.216;2023-12-22T01:38:54;5.04;77.88
74224;SHT31;62585;49.706;18.216;2023-12-22T01:41:20;5.04;77.69
74224;SHT31;62585;49.706;18.216;2023-12-22T01:43:46;5.13;76.96
74224;SHT31;62585;49.706;18.216;2023-12-22T01:46:12;5.10;76.60
74224;SHT31;62585;49.706;18.216;2023-12-22T01:48:38;5.07;76.35
74224;SHT31;62585;49.706;18.216;2023-12-22T01:51:04;5.06;76.41
74224;SHT31;62585;49.706;18.216;2023-12-22T01:53:32;5.04;75.94
74224;SHT31;62585;49.706;18.216;2023-12-22T01:55:59;5.07;76.28
74224;SHT31;62585;49.706;18.216;2023-12-22T01:58:26;5.04;76.73
74224;SHT31;62585;49.706;18.216;2023-12-22T02:00:53;4.99;76.58
74224;SHT31;62585;49.706;18.216;2023-12-22T02:03:19;4.96;76.92
74224;SHT31;62585;49.706;18.216;2023-12-22T02:05:45;4.87;77.14
74224;SHT31;62585;49.706;18.216;2023-12-22T02:08:12;4.85;77.25
74224;SHT31;62585;49.706;18.216;2023-12-22T02:10:38;4.77;77.25
74224;SHT31;62585;49.706;18.216;2023-12-22T02:13:04;4.73;77.05
74224;SHT31;62585;49.706;18.216;2023-12-22T02:15:31;4.69;77.42
74224;SHT31;62585;49.706;18.216;2023-12-22T02:18:14;4.69;77.22
74224;SHT31;62585;49.706;18.216;2023-12-22T02:20:42;4.62;76.77
74224;SHT31;62585;49.706;18.216;2023-12-22T02:23:10;4.56;77.24
74224;SHT31;62585;49.706;18.216;2023-12-22T02:25:35;4.56;76.73
74224;SHT31;62585;49.706;18.216;2023-12-22T02:28:05;4.61;76.83
74224;SHT31;62585;49.706;18.216;2023-12-22T02:30:36;4.66;75.72
74224;SHT31;62585;49.706;18.216;2023-12-22T02:33:05;4.61;76.11
74224;SHT31;62585;49.706;18.216;2023-12-22T02:35:34;4.61;75.89
74224;SHT31;62585;49.706;18.216;2023-12-22T02:38:02;4.58;75.25
74224;SHT31;62585;49.706;18.216;2023-12-22T02:40:30;4.68;75.22
74224;SHT31;62585;49.706;18.216;2023-12-22T02:42:56;4.68;75.57
74224;SHT31;62585;49.706;18.216;2023-12-22T02:45:22;4.66;75.23
74224;SHT31;62585;49.706;18.216;2023-12-22T02:47:48;4.58;75.32
74224;SHT31;62585;49.706;18.216;2023-12-22T02:50:15;4.55;75.54
74224;SHT31;62585;49.706;18.216;2023-12-22T02:52:42;4.65;75.12
74224;SHT31;62585;49.706;18.216;2023-12-22T02:55:08;4.72;75.04
74224;SHT31;62585;49.706;18.216;2023-12-22T02:57:34;4.65;74.90
74224;SHT31;62585;49.706;18.216;2023-12-22T03:00:01;4.55;75.31
74224;SHT31;62585;49.706;18.216;2023-12-22T03:02:27;4.58;74.91
74224;SHT31;62585;49.706;18.216;2023-12-22T03:04:52;4.54;75.00
74224;SHT31;62585;49.706;18.216;2023-12-22T03:07:18;4.52;75.26
74224;SHT31;62585;49.706;18.216;2023-12-22T03:09:44;4.55;75.18
74224;SHT31;62585;49.706;18.216;2023-12-22T03:12:10;4.59;74.63
74224;SHT31;62585;49.706;18.216;2023-12-22T03:14:37;4.47;74.38
74224;SHT31;62585;49.706;18.216;2023-12-22T03:17:04;4.45;74.66
74224;SHT31;62585;49.706;18.216;2023-12-22T03:19:30;4.42;74.25
74224;SHT31;62585;49.706;18.216;2023-12-22T03:21:57;4.38;73.86
74224;SHT31;62585;49.706;18.216;2023-12-22T03:24:23;4.41;74.01
74224;SHT31;62585;49.706;18.216;2023-12-22T03:26:50;4.38;74.01
74224;SHT31;62585;49.706;18.216;2023-12-22T03:29:16;4.45;73.64
74224;SHT31;62585;49.706;18.216;2023-12-22T03:31:43;4.44;73.11
74224;SHT31;62585;49.706;18.216;2023-12-22T03:34:09;4.41;72.74
74224;SHT31;62585;49.706;18.216;2023-12-22T03:36:35;4.45;72.86
74224;SHT31;62585;49.706;18.216;2023-12-22T03:39:01;4.42;73.02
74224;SHT31;62585;49.706;18.216;2023-12-22T03:41:28;4.37;72.62
74224;SHT31;62585;49.706;18.216;2023-12-22T03:43:55;4.41;73.13
74224;SHT31;62585;49.706;18.216;2023-12-22T03:46:21;4.34;72.71
74224;SHT31;62585;49.706;18.216;2023-12-22T03:48:47;4.44;72.98
74224;SHT31;62585;49.706;18.216;2023-12-22T03:51:13;4.38;72.84
74224;SHT31;62585;49.706;18.216;2023-12-22T03:53:41;4.41;72.48
74224;SHT31;62585;49.706;18.216;2023-12-22T03:56:08;4.41;72.89
74224;SHT31;62585;49.706;18.216;2023-12-22T03:58:35;4.48;73.37
74224;SHT31;62585;49.706;18.216;2023-12-22T04:01:01;4.55;73.05
74224;SHT31;62585;49.706;18.216;2023-12-22T04:03:27;4.54;73.35
74224;SHT31;62585;49.706;18.216;2023-12-22T04:05:53;4.54;73.41
74224;SHT31;62585;49.706;18.216;2023-12-22T04:08:18;4.58;73.01
74224;SHT31;62585;49.706;18.216;2023-12-22T04:10:47;4.62;73.37
74224;SHT31;62585;49.706;18.216;2023-12-22T04:13:13;4.48;73.26
74224;SHT31;62585;49.706;18.216;2023-12-22T04:15:39;4.49;72.75
74224;SHT31;62585;49.706;18.216;2023-12-22T04:18:05;4.52;72.55
74224;SHT31;62585;49.706;18.216;2023-12-22T04:20:31;4.56;72.89
74224;SHT31;62585;49.706;18.216;2023-12-22T04:22:57;4.52;72.79
74224;SHT31;62585;49.706;18.216;2023-12-22T04:25:23;4.58;72.24
74224;SHT31;62585;49.706;18.216;2023-12-22T04:27:51;4.49;72.38
74224;SHT31;62585;49.706;18.216;2023-12-22T04:30:17;4.47;72.11
74224;SHT31;62585;49.706;18.216;2023-12-22T04:32:43;4.45;72.33
74224;SHT31;62585;49.706;18.216;2023-12-22T04:35:09;4.41;72.12
74224;SHT31;62585;49.706;18.216;2023-12-22T04:37:35;4.47;72.10
74224;SHT31;62585;49.706;18.216;2023-12-22T04:40:01;4.48;72.37
74224;SHT31;62585;49.706;18.216;2023-12-22T04:42:28;4.51;71.99
74224;SHT31;62585;49.706;18.216;2023-12-22T04:44:54;4.49;71.94
74224;SHT31;62585;49.706;18.216;2023-12-22T04:47:20;4.52;72.21
74224;SHT31;62585;49.706;18.216;2023-12-22T04:49:46;4.45;72.41
74224;SHT31;62585;49.706;18.216;2023-12-22T04:52:12;4.37;72.61
74224;SHT31;62585;49.706;18.216;2023-12-22T04:54:38;4.36;72.86
74224;SHT31;62585;49.706;18.216;2023-12-22T04:57:04;4.28;73.21
74224;SHT31;62585;49.706;18.216;2023-12-22T04:59:30;4.24;73.77
74224;SHT31;62585;49.706;18.216;2023-12-22T05:01:56;4.20;74.35
74224;SHT31;62585;49.706;18.216;2023-12-22T05:04:22;4.03;75.29
74224;SHT31;62585;49.706;18.216;2023-12-22T05:06:48;3.99;75.71
74224;SHT31;62585;49.706;18.216;2023-12-22T05:09:15;3.99;75.69
74224;SHT31;62585;49.706;18.216;2023-12-22T05:11:41;3.97;75.68
74224;SHT31;62585;49.706;18.216;2023-12-22T05:14:07;3.96;75.59
74224;SHT31;62585;49.706;18.216;2023-12-22T05:16:33;3.99;75.74
74224;SHT31;62585;49.706;18.216;2023-12-22T05:19:00;4.07;75.38
74224;SHT31;62585;49.706;18.216;2023-12-22T05:21:26;4.00;75.67
74224;SHT31;62585;49.706;18.216;2023-12-22T05:23:53;3.96;76.51
74224;SHT31;62585;49.706;18.216;2023-12-22T05:26:20;3.85;78.16
74224;SHT31;62585;49.706;18.216;2023-12-22T05:28:47;3.58;79.87
74224;SHT31;62585;49.706;18.216;2023-12-22T05:31:16;3.48;81.04
74224;SHT31;62585;49.706;18.216;2023-12-22T05:33:42;3.11;82.68
74224;SHT31;62585;49.706;18.216;2023-12-22T05:36:08;2.97;83.46
74224;SHT31;62585;49.706;18.216;2023-12-22T05:38:38;2.75;84.36
74224;SHT31;62585;49.706;18.216;2023-12-22T05:41:04;2.56;85.61
74224;SHT31;62585;49.706;18.216;2023-12-22T05:43:32;2.52;85.88
74224;SHT31;62585;49.706;18.216;2023-12-22T05:45:59;2.36;86.83
74224;SHT31;62585;49.706;18.216;2023-12-22T05:48:27;2.24;87.71
74224;SHT31;62585;49.706;18.216;2023-12-22T05:50:56;2.18;88.40
74224;SHT31;62585;49.706;18.216;2023-12-22T05:53:22;2.07;88.59
74224;SHT31;62585;49.706;18.216;2023-12-22T05:55:48;2.00;89.14
74224;SHT31;62585;49.706;18.216;2023-12-22T05:58:14;2.17;88.84
74224;SHT31;62585;49.706;18.216;2023-12-22T06:00:40;1.90;89.56
74224;SHT31;62585;49.706;18.216;2023-12-22T06:03:06;1.94;89.46
74224;SHT31;62585;49.706;18.216;2023-12-22T06:05:32;1.98;89.28
74224;SHT31;62585;49.706;18.216;2023-12-22T06:07:58;1.96;89.25
74224;SHT31;62585;49.706;18.216;2023-12-22T06:10:24;2.04;88.97
74224;SHT31;62585;49.706;18.216;2023-12-22T06:12:50;1.98;89.01
74224;SHT31;62585;49.706;18.216;2023-12-22T06:15:15;2.03;88.90
74224;SHT31;62585;49.706;18.216;2023-12-22T06:17:41;2.01;88.69
74224;SHT31;62585;49.706;18.216;2023-12-22T06:20:07;1.98;88.87
74224;SHT31;62585;49.706;18.216;2023-12-22T06:22:33;1.97;89.08
74224;SHT31;62585;49.706;18.216;2023-12-22T06:24:59;2.11;88.55
74224;SHT31;62585;49.706;18.216;2023-12-22T06:27:25;2.14;88.25
74224;SHT31;62585;49.706;18.216;2023-12-22T06:29:51;2.22;87.93
74224;SHT31;62585;49.706;18.216;2023-12-22T06:32:17;2.29;87.12
74224;SHT31;62585;49.706;18.216;2023-12-22T06:34:43;2.45;86.41
74224;SHT31;62585;49.706;18.216;2023-12-22T06:37:09;2.65;85.35
74224;SHT31;62585;49.706;18.216;2023-12-22T06:39:36;2.73;84.67
74224;SHT31;62585;49.706;18.216;2023-12-22T06:42:02;2.82;84.42
74224;SHT31;62585;49.706;18.216;2023-12-22T06:44:31;2.77;84.21
74224;SHT31;62585;49.706;18.216;2023-12-22T06:46:57;2.89;84.03
74224;SHT31;62585;49.706;18.216;2023-12-22T06:49:23;2.79;84.12
74224;SHT31;62585;49.706;18.216;2023-12-22T06:51:49;2.93;83.52
74224;SHT31;62585;49.706;18.216;2023-12-22T06:54:14;2.92;83.10
74224;SHT31;62585;49.706;18.216;2023-12-22T06:56:40;2.82;83.36
74224;SHT31;62585;49.706;18.216;2023-12-22T06:59:06;2.83;83.78
74224;SHT31;62585;49.706;18.216;2023-12-22T07:01:33;2.79;83.70
74224;SHT31;62585;49.706;18.216;2023-12-22T07:04:00;2.83;83.62
74224;SHT31;62585;49.706;18.216;2023-12-22T07:06:28;2.84;83.63
74224;SHT31;62585;49.706;18.216;2023-12-22T07:11:39;3.04;82.48
74224;SHT31;62585;49.706;18.216;2023-12-22T07:14:05;3.14;81.96
74224;SHT31;62585;49.706;18.216;2023-12-22T07:16:32;3.25;81.75
74224;SHT31;62585;49.706;18.216;2023-12-22T07:18:58;3.31;80.96
74224;SHT31;62585;49.706;18.216;2023-12-22T07:21:24;3.34;80.69
74224;SHT31;62585;49.706;18.216;2023-12-22T07:23:49;3.42;80.48
74224;SHT31;62585;49.706;18.216;2023-12-22T07:26:15;3.51;79.93
74224;SHT31;62585;49.706;18.216;2023-12-22T07:28:41;3.69;79.26
74224;SHT31;62585;49.706;18.216;2023-12-22T07:31:07;3.62;78.88
74224;SHT31;62585;49.706;18.216;2023-12-22T07:33:32;3.70;78.73
74224;SHT31;62585;49.706;18.216;2023-12-22T07:35:58;3.76;78.03
74224;SHT31;62585;49.706;18.216;2023-12-22T07:38:24;3.69;78.03
74224;SHT31;62585;49.706;18.216;2023-12-22T07:40:50;3.76;77.70
74224;SHT31;62585;49.706;18.216;2023-12-22T07:43:16;3.78;76.97
74224;SHT31;62585;49.706;18.216;2023-12-22T07:45:41;3.80;77.02
74224;SHT31;62585;49.706;18.216;2023-12-22T07:48:07;3.87;76.67
74224;SHT31;62585;49.706;18.216;2023-12-22T07:50:33;3.85;76.37
74224;SHT31;62585;49.706;18.216;2023-12-22T07:52:59;3.94;75.91
74224;SHT31;62585;49.706;18.216;2023-12-22T07:55:25;4.07;75.57
74224;SHT31;62585;49.706;18.216;2023-12-22T07:57:51;3.91;75.01
74224;SHT31;62585;49.706;18.216;2023-12-22T08:00:17;3.94;75.46
74224;SHT31;62585;49.706;18.216;2023-12-22T08:02:43;4.07;74.94
74224;SHT31;62585;49.706;18.216;2023-12-22T08:05:09;3.97;75.06
74224;SHT31;62585;49.706;18.216;2023-12-22T08:07:35;3.97;75.37
74224;SHT31;62585;49.706;18.216;2023-12-22T08:10:02;3.96;75.55
74224;SHT31;62585;49.706;18.216;2023-12-22T08:12:28;3.90;75.43
74224;SHT31;62585;49.706;18.216;2023-12-22T08:14:54;4.01;75.83
74224;SHT31;62585;49.706;18.216;2023-12-22T08:17:20;4.16;75.32
74224;SHT31;62585;49.706;18.216;2023-12-22T08:19:46;4.55;73.95
74224;SHT31;62585;49.706;18.216;2023-12-22T08:22:12;4.41;73.57
74224;SHT31;62585;49.706;18.216;2023-12-22T08:24:41;4.51;73.49
74224;SHT31;62585;49.706;18.216;2023-12-22T08:27:07;4.36;73.48
74224;SHT31;62585;49.706;18.216;2023-12-22T08:29:33;5.23;71.96
74224;SHT31;62585;49.706;18.216;2023-12-22T08:31:59;5.27;70.45
74224;SHT31;62585;49.706;18.216;2023-12-22T08:34:26;4.93;71.69
74224;SHT31;62585;49.706;18.216;2023-12-22T08:36:52;5.23;70.98
74224;SHT31;62585;49.706;18.216;2023-12-22T08:39:18;5.95;68.05
74224;SHT31;62585;49.706;18.216;2023-12-22T08:41:44;5.24;68.29
74224;SHT31;62585;49.706;18.216;2023-12-22T08:44:11;4.87;70.31
74224;SHT31;62585;49.706;18.216;2023-12-22T08:46:40;4.86;71.02
74224;SHT31;62585;49.706;18.216;2023-12-22T08:49:06;4.72;70.33
74224;SHT31;62585;49.706;18.216;2023-12-22T08:51:33;4.86;70.70
74224;SHT31;62585;49.706;18.216;2023-12-22T08:53:59;4.79;70.11
74224;SHT31;62585;49.706;18.216;2023-12-22T08:56:25;4.68;70.62
74224;SHT31;62585;49.706;18.216;2023-12-22T08:58:52;4.59;70.96
74224;SHT31;62585;49.706;18.216;2023-12-22T09:01:20;4.64;70.41
74224;SHT31;62585;49.706;18.216;2023-12-22T09:03:48;4.71;70.29
74224;SHT31;62585;49.706;18.216;2023-12-22T09:06:17;4.65;70.30
74224;SHT31;62585;49.706;18.216;2023-12-22T09:08:44;4.55;70.87
74224;SHT31;62585;49.706;18.216;2023-12-22T09:11:15;4.51;71.00
74224;SHT31;62585;49.706;18.216;2023-12-22T09:13:41;4.42;71.69
74224;SHT31;62585;49.706;18.216;2023-12-22T09:16:07;4.44;72.52
74224;SHT31;62585;49.706;18.216;2023-12-22T09:18:34;4.22;72.90
74224;SHT31;62585;49.706;18.216;2023-12-22T09:21:01;4.20;73.91
74224;SHT31;62585;49.706;18.216;2023-12-22T09:23:27;4.16;74.53
74224;SHT31;62585;49.706;18.216;2023-12-22T09:25:52;4.16;74.61
74224;SHT31;62585;49.706;18.216;2023-12-22T09:28:18;4.10;74.44
74224;SHT31;62585;49.706;18.216;2023-12-22T09:30:44;4.08;75.13
74224;SHT31;62585;49.706;18.216;2023-12-22T09:33:10;4.20;74.97
74224;SHT31;62585;49.706;18.216;2023-12-22T09:35:36;4.34;74.78
74224;SHT31;62585;49.706;18.216;2023-12-22T09:38:02;4.58;74.43
74224;SHT31;62585;49.706;18.216;2023-12-22T09:40:28;4.62;73.71
74224;SHT31;62585;49.706;18.216;2023-12-22T09:42:55;4.42;72.99
74224;SHT31;62585;49.706;18.216;2023-12-22T09:45:21;4.38;73.67
74224;SHT31;62585;49.706;18.216;2023-12-22T09:47:48;4.22;73.17
74224;SHT31;62585;49.706;18.216;2023-12-22T09:50:15;4.17;73.23
74224;SHT31;62585;49.706;18.216;2023-12-22T09:52:44;4.27;72.55
74224;SHT31;62585;49.706;18.216;2023-12-22T09:55:12;4.31;72.24
74224;SHT31;62585;49.706;18.216;2023-12-22T09:57:39;4.34;71.62
74224;SHT31;62585;49.706;18.216;2023-12-22T10:00:09;4.37;71.75
74224;SHT31;62585;49.706;18.216;2023-12-22T10:02:36;4.34;71.44
74224;SHT31;62585;49.706;18.216;2023-12-22T10:05:02;4.24;71.73
74224;SHT31;62585;49.706;18.216;2023-12-22T10:07:30;4.44;71.39
74224;SHT31;62585;49.706;18.216;2023-12-22T10:09:57;4.44;71.10
74224;SHT31;62585;49.706;18.216;2023-12-22T10:12:24;4.42;70.91
74224;SHT31;62585;49.706;18.216;2023-12-22T10:14:51;4.47;70.92
74224;SHT31;62585;49.706;18.216;2023-12-22T10:17:18;4.54;70.52
74224;SHT31;62585;49.706;18.216;2023-12-22T10:19:44;4.55;69.82
74224;SHT31;62585;49.706;18.216;2023-12-22T10:22:10;4.56;69.30
74224;SHT31;62585;49.706;18.216;2023-12-22T10:24:40;4.76;69.45
74224;SHT31;62585;49.706;18.216;2023-12-22T10:27:11;4.69;68.57
74224;SHT31;62585;49.706;18.216;2023-12-22T10:29:37;4.73;68.38
74224;SHT31;62585;49.706;18.216;2023-12-22T10:32:04;4.65;68.65
74224;SHT31;62585;49.706;18.216;2023-12-22T10:34:30;4.73;68.46
74224;SHT31;62585;49.706;18.216;2023-12-22T10:36:57;4.73;67.98
74224;SHT31;62585;49.706;18.216;2023-12-22T10:39:28;4.71;68.01
74224;SHT31;62585;49.706;18.216;2023-12-22T10:41:55;4.75;67.46
74224;SHT31;62585;49.706;18.216;2023-12-22T10:44:26;4.76;66.34
74224;SHT31;62585;49.706;18.216;2023-12-22T10:46:52;4.69;66.68
74224;SHT31;62585;49.706;18.216;2023-12-22T10:49:19;4.76;67.07
74224;SHT31;62585;49.706;18.216;2023-12-22T10:51:45;4.65;66.86
74224;SHT31;62585;49.706;18.216;2023-12-22T10:54:10;4.79;66.91
74224;SHT31;62585;49.706;18.216;2023-12-22T10:56:36;4.87;66.63
74224;SHT31;62585;49.706;18.216;2023-12-22T10:59:02;4.96;66.32
74224;SHT31;62585;49.706;18.216;2023-12-22T11:01:32;5.16;66.53
74224;SHT31;62585;49.706;18.216;2023-12-22T11:04:06;5.19;66.09
74224;SHT31;62585;49.706;18.216;2023-12-22T11:06:37;5.14;66.18
74224;SHT31;62585;49.706;18.216;2023-12-22T11:09:07;5.04;65.96
74224;SHT31;62585;49.706;18.216;2023-12-22T11:11:36;5.01;66.06
74224;SHT31;62585;49.706;18.216;2023-12-22T11:14:03;5.01;65.95
74224;SHT31;62585;49.706;18.216;2023-12-22T11:16:30;6.00;63.75
74224;SHT31;62585;49.706;18.216;2023-12-22T11:18:56;6.68;61.88
74224;SHT31;62585;49.706;18.216;2023-12-22T11:21:24;7.16;59.84
74224;SHT31;62585;49.706;18.216;2023-12-22T11:23:51;6.37;61.62
74224;SHT31;62585;49.706;18.216;2023-12-22T11:26:18;5.92;62.11
74224;SHT31;62585;49.706;18.216;2023-12-22T11:28:49;6.00;61.80
74224;SHT31;62585;49.706;18.216;2023-12-22T11:31:15;6.50;61.24
74224;SHT31;62585;49.706;18.216;2023-12-22T11:33:48;7.68;58.30
74224;SHT31;62585;49.706;18.216;2023-12-22T11:36:16;7.48;58.00
74224;SHT31;62585;49.706;18.216;2023-12-22T11:38:42;6.40;59.74
74224;SHT31;62585;49.706;18.216;2023-12-22T11:41:11;5.86;61.36
74224;SHT31;62585;49.706;18.216;2023-12-22T11:43:39;5.81;62.60
74224;SHT31;62585;49.706;18.216;2023-12-22T11:46:05;5.58;61.38
74224;SHT31;62585;49.706;18.216;2023-12-22T11:48:31;5.38;62.67
74224;SHT31;62585;49.706;18.216;2023-12-22T11:50:58;5.22;63.33
74224;SHT31;62585;49.706;18.216;2023-12-22T11:53:25;5.00;63.27
74224;SHT31;62585;49.706;18.216;2023-12-22T12:01:10;4.42;68.78
74224;SHT31;62585;49.706;18.216;2023-12-22T12:03:57;4.22;70.77
74224;SHT31;62585;49.706;18.216;2023-12-22T12:08:56;4.06;74.05
74224;SHT31;62585;49.706;18.216;2023-12-22T12:11:23;4.58;73.06
74224;SHT31;62585;49.706;18.216;2023-12-22T12:13:50;4.68;73.31
74224;SHT31;62585;49.706;18.216;2023-12-22T12:16:20;5.51;70.56
74224;SHT31;62585;49.706;18.216;2023-12-22T12:18:50;5.86;69.64
74224;SHT31;62585;49.706;18.216;2023-12-22T12:21:18;6.37;68.24
74224;SHT31;62585;49.706;18.216;2023-12-22T12:23:44;6.69;66.67
74224;SHT31;62585;49.706;18.216;2023-12-22T12:26:11;6.79;67.27
74224;SHT31;62585;49.706;18.216;2023-12-22T12:28:37;7.30;65.46
74224;SHT31;62585;49.706;18.216;2023-12-22T12:31:08;7.31;65.04
74224;SHT31;62585;49.706;18.216;2023-12-22T12:33:35;7.19;65.39
74224;SHT31;62585;49.706;18.216;2023-12-22T12:36:02;7.31;65.03
74224;SHT31;62585;49.706;18.216;2023-12-22T12:38:55;7.33;64.21
74224;SHT31;62585;49.706;18.216;2023-12-22T12:41:31;7.19;64.76
74224;SHT31;62585;49.706;18.216;2023-12-22T12:44:06;7.10;63.46
74224;SHT31;62585;49.706;18.216;2023-12-22T12:46:35;6.78;63.08
74224;SHT31;62585;49.706;18.216;2023-12-22T12:49:09;6.06;61.93
74224;SHT31;62585;49.706;18.216;2023-12-22T12:51:42;6.23;62.22
74224;SHT31;62585;49.706;18.216;2023-12-22T12:54:09;6.27;61.86
74224;SHT31;62585;49.706;18.216;2023-12-22T12:56:45;6.06;61.71
74224;SHT31;62585;49.706;18.216;2023-12-22T12:59:14;5.93;62.15
74224;SHT31;62585;49.706;18.216;2023-12-22T13:01:49;6.10;61.84
74224;SHT31;62585;49.706;18.216;2023-12-22T13:04:15;6.16;60.92
74224;SHT31;62585;49.706;18.216;2023-12-22T13:06:47;6.06;60.50
74224;SHT31;62585;49.706;18.216;2023-12-22T13:09:14;5.76;60.77
74224;SHT31;62585;49.706;18.216;2023-12-22T13:11:42;5.89;61.03
74224;SHT31;62585;49.706;18.216;2023-12-22T13:14:09;6.02;59.60
74224;SHT31;62585;49.706;18.216;2023-12-22T13:16:35;6.03;59.72
74224;SHT31;62585;49.706;18.216;2023-12-22T13:19:01;6.00;59.52
74224;SHT31;62585;49.706;18.216;2023-12-22T13:21:27;6.19;59.40
74224;SHT31;62585;49.706;18.216;2023-12-22T13:24:14;6.10;57.78
74224;SHT31;62585;49.706;18.216;2023-12-22T13:26:44;6.13;58.17
74224;SHT31;62585;49.706;18.216;2023-12-22T13:29:11;6.27;57.73
74224;SHT31;62585;49.706;18.216;2023-12-22T13:31:41;6.27;57.42
74224;SHT31;62585;49.706;18.216;2023-12-22T13:34:12;6.47;56.90
74224;SHT31;62585;49.706;18.216;2023-12-22T13:36:39;6.63;56.39
74224;SHT31;62585;49.706;18.216;2023-12-22T13:39:05;6.91;55.33
74224;SHT31;62585;49.706;18.216;2023-12-22T13:41:33;6.98;54.27
74224;SHT31;62585;49.706;18.216;2023-12-22T13:44:05;6.74;54.01
74224;SHT31;62585;49.706;18.216;2023-12-22T13:46:31;6.30;55.18
74224;SHT31;62585;49.706;18.216;2023-12-22T13:48:58;6.68;52.96
74224;SHT31;62585;49.706;18.216;2023-12-22T13:51:23;6.64;53.88
74224;SHT31;62585;49.706;18.216;2023-12-22T13:53:50;6.03;54.37
74224;SHT31;62585;49.706;18.216;2023-12-22T13:56:16;5.62;56.09
74224;SHT31;62585;49.706;18.216;2023-12-22T13:58:45;5.92;56.41
74224;SHT31;62585;49.706;18.216;2023-12-22T14:01:15;5.89;55.46
74224;SHT31;62585;49.706;18.216;2023-12-22T14:03:42;6.31;56.02
74224;SHT31;62585;49.706;18.216;2023-12-22T14:06:08;5.88;56.20
74224;SHT31;62585;49.706;18.216;2023-12-22T14:08:35;5.79;57.62
74224;SHT31;62585;49.706;18.216;2023-12-22T14:11:01;5.61;57.42
74224;SHT31;62585;49.706;18.216;2023-12-22T14:13:28;5.38;57.55
74224;SHT31;62585;49.706;18.216;2023-12-22T14:15:53;4.97;59.59
74224;SHT31;62585;49.706;18.216;2023-12-22T14:18:19;4.90;59.57
74224;SHT31;62585;49.706;18.216;2023-12-22T14:20:45;4.66;60.28
74224;SHT31;62585;49.706;18.216;2023-12-22T14:23:11;4.38;60.62
74224;SHT31;62585;49.706;18.216;2023-12-22T14:25:42;4.22;61.29
74224;SHT31;62585;49.706;18.216;2023-12-22T14:28:08;4.16;61.90
74224;SHT31;62585;49.706;18.216;2023-12-22T14:30:34;4.11;61.83
74224;SHT31;62585;49.706;18.216;2023-12-22T14:33:00;4.11;61.80
74224;SHT31;62585;49.706;18.216;2023-12-22T14:35:25;3.96;62.25
74224;SHT31;62585;49.706;18.216;2023-12-22T14:37:51;3.86;62.43
74224;SHT31;62585;49.706;18.216;2023-12-22T14:40:17;3.78;62.86
74224;SHT31;62585;49.706;18.216;2023-12-22T14:42:43;3.78;62.93
74224;SHT31;62585;49.706;18.216;2023-12-22T14:45:09;3.79;63.03
74224;SHT31;62585;49.706;18.216;2023-12-22T14:47:35;3.72;63.54
74224;SHT31;62585;49.706;18.216;2023-12-22T14:50:01;3.69;63.53
74224;SHT31;62585;49.706;18.216;2023-12-22T14:52:32;3.59;63.96
74224;SHT31;62585;49.706;18.216;2023-12-22T14:54:59;3.56;64.51
74224;SHT31;62585;49.706;18.216;2023-12-22T14:57:25;3.46;64.99
74224;SHT31;62585;49.706;18.216;2023-12-22T14:59:51;3.45;65.14
74224;SHT31;62585;49.706;18.216;2023-12-22T15:02:17;3.45;65.66
74224;SHT31;62585;49.706;18.216;2023-12-22T15:04:44;3.42;65.64
74224;SHT31;62585;49.706;18.216;2023-12-22T15:07:09;3.41;65.97
74224;SHT31;62585;49.706;18.216;2023-12-22T15:09:39;3.38;66.15
74224;SHT31;62585;49.706;18.216;2023-12-22T15:12:05;3.38;66.44
74224;SHT31;62585;49.706;18.216;2023-12-22T15:14:31;3.35;66.58
74224;SHT31;62585;49.706;18.216;2023-12-22T15:16:57;3.43;66.70
74224;SHT31;62585;49.706;18.216;2023-12-22T15:19:22;3.36;67.06
74224;SHT31;62585;49.706;18.216;2023-12-22T15:21:48;3.28;67.50
74224;SHT31;62585;49.706;18.216;2023-12-22T15:24:14;3.22;67.70
74224;SHT31;62585;49.706;18.216;2023-12-22T15:26:40;3.30;67.81
74224;SHT31;62585;49.706;18.216;2023-12-22T15:29:06;3.28;68.02
74224;SHT31;62585;49.706;18.216;2023-12-22T15:31:32;3.27;68.19
74224;SHT31;62585;49.706;18.216;2023-12-22T15:34:00;3.11;68.64
74224;SHT31;62585;49.706;18.216;2023-12-22T15:36:26;3.05;69.46
74224;SHT31;62585;49.706;18.216;2023-12-22T15:38:53;3.00;69.80